createdAt,value
2018-02-15T00:00:37.197Z,8.27
2018-02-15T00:03:06.249Z,6.65
2018-02-15T00:05:33.766Z,9.20
2018-02-15T00:08:01.270Z,4.85
2018-02-15T00:10:28.779Z,9.13
2018-02-15T00:12:56.276Z,7.60
2018-02-15T00:15:24.582Z,7.40
2018-02-15T00:17:52.095Z,5.55
2018-02-15T00:20:20.372Z,6.55
2018-02-15T00:22:50.432Z,3.80
2018-02-15T00:25:19.671Z,5.25
2018-02-15T00:27:47.181Z,8.23
2018-02-15T00:30:14.687Z,6.60
2018-02-15T00:32:42.217Z,4.57
2018-02-15T00:35:09.717Z,7.70
2018-02-15T00:37:38.019Z,8.02
2018-02-15T00:40:06.284Z,13.23
2018-02-15T00:42:34.579Z,4.43
2018-02-15T00:45:02.096Z,3.67
2018-02-15T00:47:29.596Z,3.90
2018-02-15T00:49:57.114Z,6.95
2018-02-15T00:52:24.612Z,4.50
2018-02-15T00:54:52.133Z,4.32
2018-02-15T00:57:19.638Z,3.47
2018-02-15T00:59:47.147Z,5.15
2018-02-15T01:02:14.667Z,3.78
2018-02-15T01:04:42.188Z,5.75
2018-02-15T01:07:09.703Z,3.78
2018-02-15T01:09:37.196Z,7.37
2018-02-15T01:12:05.495Z,3.72
2018-02-15T01:14:33.020Z,4.55
2018-02-15T01:17:00.556Z,2.85
2018-02-15T01:19:28.069Z,8.95
2018-02-15T01:21:55.605Z,6.45
2018-02-15T01:24:23.888Z,3.00
2018-02-15T01:26:52.182Z,6.18
2018-02-15T01:29:19.685Z,3.87
2018-02-15T01:31:47.200Z,2.97
2018-02-15T01:34:14.703Z,2.75
2018-02-15T01:36:42.195Z,5.55
2018-02-15T01:39:10.474Z,4.65
2018-02-15T01:41:38.742Z,4.47
2018-02-15T01:44:07.034Z,4.62
2018-02-15T01:46:35.309Z,4.60
2018-02-15T01:49:03.584Z,8.27
2018-02-15T01:51:31.868Z,5.25
2018-02-15T01:54:00.173Z,5.12
2018-02-15T01:56:27.664Z,3.40
2018-02-15T01:58:55.181Z,4.62
2018-02-15T02:01:22.720Z,3.20
2018-02-15T02:03:50.243Z,4.57
2018-02-15T02:06:17.763Z,2.92
2018-02-15T02:08:45.256Z,3.25
2018-02-15T02:11:12.795Z,2.42
2018-02-15T02:13:40.305Z,2.20
2018-02-15T02:16:08.594Z,4.75
2018-02-15T02:18:36.098Z,2.80
2018-02-15T02:21:03.612Z,2.53
2018-02-15T02:23:31.100Z,2.87
2018-02-15T02:25:58.615Z,4.03
2018-02-15T02:28:26.916Z,4.22
2018-02-15T02:30:54.432Z,2.15
2018-02-15T02:33:22.706Z,2.45
2018-02-15T02:35:50.248Z,6.00
2018-02-15T02:38:17.764Z,2.67
2018-02-15T02:40:45.270Z,3.35
2018-02-15T02:43:12.788Z,2.83
2018-02-15T02:45:40.302Z,2.92
2018-02-15T02:48:07.811Z,2.65
2018-02-15T02:50:35.338Z,2.12
2018-02-15T02:53:03.596Z,3.00
2018-02-15T02:55:31.089Z,4.32
2018-02-15T02:57:58.605Z,4.15
2018-02-15T03:00:26.132Z,3.75
2018-02-15T03:02:53.646Z,2.70
2018-02-15T03:05:21.942Z,2.30
2018-02-15T03:07:49.460Z,2.30
2018-02-15T03:10:16.968Z,7.68
2018-02-15T03:12:44.497Z,2.78
2018-02-15T03:15:12.780Z,7.45
2018-02-15T03:17:41.054Z,4.12
2018-02-15T03:20:09.335Z,2.55
2018-02-15T03:22:37.598Z,2.90
2018-02-15T03:25:05.870Z,2.78
2018-02-15T03:27:34.152Z,2.92
2018-02-15T03:30:02.422Z,2.28
2018-02-15T03:32:30.702Z,1.98
2018-02-15T03:34:58.993Z,2.42
2018-02-15T03:37:27.265Z,2.05
2018-02-15T03:39:55.543Z,3.85
2018-02-15T03:42:23.847Z,6.28
2018-02-15T03:44:51.349Z,2.33
2018-02-15T03:47:18.861Z,2.55
2018-02-15T03:49:46.400Z,3.72
2018-02-15T03:52:13.906Z,2.00
2018-02-15T03:54:41.407Z,1.52
2018-02-15T03:57:09.693Z,2.10
2018-02-15T03:59:37.199Z,2.90
2018-02-15T04:02:04.691Z,2.25
2018-02-15T04:04:32.994Z,5.07
2018-02-15T04:07:00.512Z,2.00
2018-02-15T04:09:28.022Z,2.30
2018-02-15T04:11:55.553Z,1.90
2018-02-15T04:14:23.814Z,3.42
2018-02-15T04:16:52.100Z,3.70
2018-02-15T04:19:20.397Z,4.28
2018-02-15T04:21:47.907Z,3.25
2018-02-15T04:24:15.412Z,4.30
2018-02-15T04:26:42.946Z,2.53
2018-02-15T04:29:11.227Z,3.62
2018-02-15T04:31:39.498Z,1.85
2018-02-15T04:34:07.790Z,2.72
2018-02-15T04:36:36.072Z,1.80
2018-02-15T04:39:03.591Z,3.25
2018-02-15T04:41:31.121Z,2.10
2018-02-15T04:43:58.615Z,2.92
2018-02-15T04:46:26.117Z,3.95
2018-02-15T04:48:53.650Z,5.87
2018-02-15T04:51:21.936Z,2.47
2018-02-15T04:53:50.200Z,3.78
2018-02-15T04:56:18.532Z,2.33
2018-02-15T04:58:46.029Z,3.05
2018-02-15T05:01:14.309Z,4.10
2018-02-15T05:03:42.628Z,3.83
2018-02-15T05:06:10.128Z,1.90
2018-02-15T05:08:37.648Z,2.42
2018-02-15T05:11:05.178Z,1.80
2018-02-15T05:13:33.449Z,3.12
2018-02-15T05:16:01.722Z,2.15
2018-02-15T05:18:30.018Z,2.10
2018-02-15T05:20:57.522Z,2.30
2018-02-15T05:23:25.014Z,2.22
2018-02-15T05:25:53.325Z,2.37
2018-02-15T05:28:20.824Z,4.68
2018-02-15T05:30:48.344Z,2.35
2018-02-15T05:33:15.868Z,1.80
2018-02-15T05:35:44.134Z,6.25
2018-02-15T05:38:12.396Z,2.28
2018-02-15T05:40:39.925Z,3.72
2018-02-15T05:43:07.444Z,3.85
2018-02-15T05:45:35.709Z,2.58
2018-02-15T05:48:04.014Z,2.00
2018-02-15T05:50:31.523Z,3.12
2018-02-15T05:52:59.020Z,3.42
2018-02-15T05:55:26.544Z,3.05
2018-02-15T05:57:54.050Z,2.80
2018-02-15T06:00:21.561Z,2.20
2018-02-15T06:02:49.871Z,2.03
2018-02-15T06:05:17.400Z,4.78
2018-02-15T06:07:45.669Z,4.70
2018-02-15T06:10:13.217Z,6.37
2018-02-15T06:12:40.732Z,3.53
2018-02-15T06:15:08.241Z,10.32
2018-02-15T06:17:35.780Z,4.22
2018-02-15T06:20:03.282Z,3.70
2018-02-15T06:22:31.563Z,5.43
2018-02-15T06:24:59.853Z,2.95
2018-02-15T06:27:27.367Z,3.50
2018-02-15T06:29:54.890Z,2.35
2018-02-15T06:32:22.418Z,1.67
2018-02-15T06:34:50.676Z,2.65
2018-02-15T06:37:19.680Z,5.18
2018-02-15T06:39:47.975Z,2.60
2018-02-15T06:42:15.502Z,4.05
2018-02-15T06:44:43.782Z,10.55
2018-02-15T06:47:12.078Z,4.12
2018-02-15T06:49:40.344Z,2.87
2018-02-15T06:52:08.627Z,7.43
2018-02-15T06:54:36.924Z,2.08
2018-02-15T06:57:04.450Z,2.78
2018-02-15T06:59:32.722Z,3.55
2018-02-15T07:02:01.013Z,2.30
2018-02-15T07:04:29.273Z,2.70
2018-02-15T07:06:57.545Z,3.20
2018-02-15T07:09:25.158Z,4.20
2018-02-15T07:11:52.670Z,2.65
2018-02-15T07:14:20.944Z,3.80
2018-02-15T07:16:49.994Z,4.47
2018-02-15T07:19:17.511Z,2.72
2018-02-15T07:21:45.785Z,2.53
2018-02-15T07:24:14.095Z,2.60
2018-02-15T07:26:41.612Z,2.90
2018-02-15T07:29:09.127Z,7.07
2018-02-15T07:31:36.666Z,2.70
2018-02-15T07:34:04.168Z,4.10
2018-02-15T07:36:31.669Z,3.10
2018-02-15T07:38:59.962Z,4.57
2018-02-15T07:41:27.474Z,2.55
2018-02-15T07:43:54.983Z,4.30
2018-02-15T07:46:22.514Z,3.17
2018-02-15T07:48:50.799Z,3.00
2018-02-15T07:51:18.313Z,3.42
2018-02-15T07:53:45.842Z,2.28
2018-02-15T07:56:13.345Z,7.00
2018-02-15T07:58:40.840Z,3.10
2018-02-15T08:01:08.366Z,3.33
2018-02-15T08:03:35.856Z,2.58
2018-02-15T08:06:03.380Z,2.70
2018-02-15T08:08:30.905Z,2.35
2018-02-15T08:10:58.409Z,2.20
2018-02-15T08:13:26.668Z,8.68
2018-02-15T08:15:54.207Z,2.05
2018-02-15T08:18:21.713Z,1.90
2018-02-15T08:20:49.996Z,4.80
2018-02-15T08:23:17.531Z,2.30
2018-02-15T08:25:45.805Z,7.85
2018-02-15T08:28:13.297Z,2.40
2018-02-15T08:30:40.822Z,2.25
2018-02-15T08:33:09.099Z,1.83
2018-02-15T08:35:37.378Z,2.03
2018-02-15T08:38:05.669Z,1.77
2018-02-15T08:40:33.172Z,1.75
2018-02-15T08:43:00.679Z,1.95
2018-02-15T08:45:28.969Z,2.95
2018-02-15T08:47:56.492Z,1.75
2018-02-15T08:50:23.988Z,4.70
2018-02-15T08:52:51.503Z,7.40
2018-02-15T08:55:19.026Z,3.03
2018-02-15T08:57:46.538Z,2.87
2018-02-15T09:00:14.066Z,1.70
2018-02-15T09:02:41.572Z,2.12
2018-02-15T09:05:09.852Z,2.33
2018-02-15T09:07:37.382Z,1.77
2018-02-15T09:10:04.872Z,2.30
2018-02-15T09:12:32.381Z,5.62
2018-02-15T09:14:59.916Z,1.83
2018-02-15T09:17:27.421Z,1.80
2018-02-15T09:19:54.913Z,1.92
2018-02-15T09:22:22.442Z,1.65
2018-02-15T09:24:50.700Z,1.67
2018-02-15T09:27:18.210Z,2.95
2018-02-15T09:29:45.745Z,2.87
2018-02-15T09:32:14.018Z,5.05
2018-02-15T09:34:42.303Z,1.70
2018-02-15T09:37:10.588Z,1.80
2018-02-15T09:39:38.095Z,2.80
2018-02-15T09:42:05.614Z,1.73
2018-02-15T09:44:33.152Z,3.45
2018-02-15T09:47:01.431Z,1.85
2018-02-15T09:49:29.725Z,6.78
2018-02-15T09:51:57.259Z,3.50
2018-02-15T09:54:25.586Z,2.30
2018-02-15T09:56:53.066Z,5.97
2018-02-15T09:59:20.601Z,1.98
2018-02-15T10:01:48.098Z,6.40
2018-02-15T10:04:15.615Z,7.90
2018-02-15T10:06:43.146Z,3.33
2018-02-15T10:09:10.659Z,6.30
2018-02-15T10:11:38.156Z,4.70
2018-02-15T10:14:06.440Z,5.55
2018-02-15T10:16:33.944Z,8.18
2018-02-15T10:19:01.464Z,4.00
2018-02-15T10:21:29.008Z,10.38
2018-02-15T10:23:56.499Z,5.05
2018-02-15T10:26:24.006Z,5.95
2018-02-15T10:28:52.306Z,7.55
2018-02-15T10:31:19.808Z,5.12
2018-02-15T10:33:47.318Z,4.45
2018-02-15T10:36:15.997Z,6.43
2018-02-15T10:38:43.547Z,11.70
2018-02-15T10:41:11.981Z,4.20
2018-02-15T10:43:39.539Z,7.40
2018-02-15T10:46:07.049Z,4.80
2018-02-15T10:48:35.325Z,4.82
2018-02-15T10:51:03.612Z,6.32
2018-02-15T10:53:31.108Z,5.22
2018-02-15T10:55:58.603Z,5.47
2018-02-15T10:58:26.179Z,2.95
2018-02-15T11:01:00.073Z,6.65
2018-02-15T11:03:30.589Z,4.05
2018-02-15T11:06:00.027Z,6.25
2018-02-15T11:08:28.299Z,7.60
2018-02-15T11:10:56.587Z,2.28
2018-02-15T11:13:24.969Z,7.18
2018-02-15T11:15:52.474Z,9.77
2018-02-15T11:18:19.999Z,5.87
2018-02-15T11:20:47.973Z,5.80
2018-02-15T11:23:15.471Z,4.65
2018-02-15T11:25:42.987Z,5.43
2018-02-15T11:28:10.501Z,4.07
2018-02-15T11:30:38.783Z,11.82
2018-02-15T11:33:07.084Z,6.55
2018-02-15T11:35:34.606Z,12.35
2018-02-15T11:38:02.096Z,7.53
2018-02-15T11:40:29.615Z,5.68
2018-02-15T11:42:57.140Z,5.03
2018-02-15T11:45:24.638Z,7.57
2018-02-15T11:47:52.156Z,16.77
2018-02-15T11:50:19.654Z,5.05
2018-02-15T11:52:47.148Z,5.53
2018-02-15T11:55:14.678Z,6.20
2018-02-15T11:57:42.960Z,4.45
2018-02-15T12:00:11.230Z,11.27
2018-02-15T12:02:38.758Z,6.78
2018-02-15T12:05:06.275Z,17.33
2018-02-15T12:07:33.782Z,9.23
2018-02-15T12:10:01.306Z,19.92
2018-02-15T12:12:28.809Z,9.68
2018-02-15T12:14:56.324Z,12.00
2018-02-15T12:17:23.854Z,11.27
2018-02-15T12:19:52.112Z,6.03
2018-02-15T12:22:19.604Z,13.55
2018-02-15T12:24:47.134Z,11.00
2018-02-15T12:27:14.624Z,10.20
2018-02-15T12:29:42.117Z,8.55
2018-02-15T12:32:09.649Z,5.55
2018-02-15T12:34:37.154Z,7.85
2018-02-15T12:37:04.652Z,12.95
2018-02-15T12:39:32.731Z,4.12
2018-02-15T12:42:00.240Z,9.40
2018-02-15T12:44:27.732Z,5.82
2018-02-15T12:46:56.040Z,6.43
2018-02-15T12:49:23.552Z,7.57
2018-02-15T12:51:51.848Z,3.40
2018-02-15T12:54:20.125Z,8.45
2018-02-15T12:56:47.613Z,5.97
2018-02-15T12:59:15.126Z,18.27
2018-02-15T13:01:43.426Z,29.60
2018-02-15T13:04:10.928Z,32.83
2018-02-15T13:06:38.428Z,11.02
2018-02-15T13:09:05.974Z,14.73
2018-02-15T13:11:34.250Z,26.20
2018-02-15T13:14:02.518Z,22.23
2018-02-15T13:16:41.975Z,11.30
2018-02-15T13:19:21.964Z,5.05
2018-02-15T13:21:49.487Z,6.45
2018-02-15T13:24:17.768Z,11.82
2018-02-15T13:26:45.278Z,12.18
2018-02-15T13:29:12.809Z,8.55
2018-02-15T13:31:40.300Z,7.50
2018-02-15T13:34:07.806Z,7.12
2018-02-15T13:36:35.326Z,5.10
2018-02-15T13:39:02.825Z,8.73
2018-02-15T13:41:30.320Z,5.65
2018-02-15T13:43:57.997Z,3.92
2018-02-15T13:46:25.475Z,2.80
2018-02-15T13:48:53.736Z,2.40
2018-02-15T13:51:21.257Z,3.12
2018-02-15T13:53:48.772Z,4.15
2018-02-15T13:56:17.042Z,3.20
2018-02-15T13:58:44.574Z,4.03
2018-02-15T14:01:12.082Z,2.67
2018-02-15T14:03:39.782Z,6.47
2018-02-15T14:06:07.347Z,10.13
2018-02-15T14:08:34.854Z,5.60
2018-02-15T14:11:03.123Z,6.53
2018-02-15T14:13:31.414Z,5.25
2018-02-15T14:15:58.905Z,6.12
2018-02-15T14:18:26.420Z,6.55
2018-02-15T14:20:54.721Z,7.20
2018-02-15T14:23:22.229Z,4.05
2018-02-15T14:25:49.731Z,4.87
2018-02-15T14:28:17.258Z,3.67
2018-02-15T14:30:44.758Z,5.30
2018-02-15T14:33:12.258Z,9.68
2018-02-15T14:35:39.796Z,5.57
2018-02-15T14:38:07.288Z,6.35
2018-02-15T14:40:34.794Z,5.80
2018-02-15T14:43:02.332Z,6.40
2018-02-15T14:45:30.598Z,9.57
2018-02-15T14:47:58.866Z,5.32
2018-02-15T14:50:27.167Z,7.57
2018-02-15T14:52:54.660Z,8.82
2018-02-15T14:55:22.170Z,8.93
2018-02-15T14:57:50.476Z,10.15
2018-02-15T15:00:17.983Z,13.05
2018-02-15T15:02:45.491Z,14.30
2018-02-15T15:05:13.031Z,17.65
2018-02-15T15:07:40.538Z,9.90
2018-02-15T15:10:08.037Z,17.08
2018-02-15T15:12:36.345Z,22.55
2018-02-15T15:15:03.854Z,22.17
2018-02-15T15:17:31.352Z,22.10
2018-02-15T15:19:58.900Z,15.60
2018-02-15T15:22:26.413Z,20.67
2018-02-15T15:24:53.918Z,15.23
2018-02-15T15:27:21.450Z,17.30
2018-02-15T15:29:48.943Z,14.05
2018-02-15T15:32:16.464Z,14.52
2018-02-15T15:34:44.004Z,14.15
2018-02-15T15:37:11.500Z,17.77
2018-02-15T15:39:39.891Z,20.35
2018-02-15T15:42:07.422Z,12.57
2018-02-15T15:44:34.927Z,15.20
2018-02-15T15:47:02.449Z,10.50
2018-02-15T15:49:30.736Z,11.12
2018-02-15T15:51:59.006Z,13.07
2018-02-15T15:54:27.278Z,10.88
2018-02-15T15:56:55.570Z,14.00
2018-02-15T15:59:23.079Z,9.63
2018-02-15T16:01:50.615Z,13.85
2018-02-15T16:04:18.142Z,9.02
2018-02-15T16:06:46.418Z,12.13
2018-02-15T16:09:14.686Z,9.95
2018-02-15T16:11:43.242Z,8.68
2018-02-15T16:14:11.528Z,9.35
2018-02-15T16:16:39.024Z,7.55
2018-02-15T16:19:07.377Z,11.75
2018-02-15T16:21:34.960Z,12.20
2018-02-15T16:24:02.462Z,10.93
2018-02-15T16:26:29.982Z,10.13
2018-02-15T16:28:57.495Z,7.87
2018-02-15T16:31:25.023Z,13.52
2018-02-15T16:33:52.540Z,9.57
2018-02-15T16:36:20.811Z,11.45
2018-02-15T16:38:49.074Z,9.90
2018-02-15T16:41:17.383Z,8.15
2018-02-15T16:43:44.886Z,8.73
2018-02-15T16:46:12.501Z,12.18
2018-02-15T16:48:40.018Z,11.63
2018-02-15T16:51:07.560Z,8.85
2018-02-15T16:53:35.076Z,9.73
2018-02-15T16:56:02.593Z,10.45
2018-02-15T16:58:30.108Z,44.85
2018-02-15T17:00:57.624Z,20.12
2018-02-15T17:03:25.946Z,18.37
2018-02-15T17:05:53.447Z,17.98
2018-02-15T17:08:20.960Z,10.77
2018-02-15T17:10:48.485Z,8.05
2018-02-15T17:13:16.754Z,9.30
2018-02-15T17:15:45.045Z,10.93
2018-02-15T17:18:13.347Z,11.88
2018-02-15T17:20:40.840Z,14.25
2018-02-15T17:23:08.364Z,15.25
2018-02-15T17:25:35.889Z,12.02
2018-02-15T17:28:04.168Z,13.50
2018-02-15T17:30:32.432Z,11.45
2018-02-15T17:33:00.729Z,11.65
2018-02-15T17:35:28.242Z,13.13
2018-02-15T17:37:55.760Z,14.38
2018-02-15T17:40:23.294Z,17.80
2018-02-15T17:42:51.577Z,17.15
2018-02-15T17:45:19.858Z,20.73
2018-02-15T17:47:48.164Z,22.13
2018-02-15T17:50:15.669Z,19.23
2018-02-15T17:52:43.183Z,28.10
2018-02-15T17:55:10.714Z,33.60
2018-02-15T17:57:38.257Z,34.72
2018-02-15T18:00:05.762Z,33.80
2018-02-15T18:02:33.297Z,39.20
2018-02-15T18:05:00.822Z,34.95
2018-02-15T18:07:28.339Z,34.50
2018-02-15T18:09:55.860Z,30.30
2018-02-15T18:12:24.136Z,39.08
2018-02-15T18:14:52.400Z,40.78
2018-02-15T18:17:20.684Z,38.30
2018-02-15T18:19:48.956Z,36.00
2018-02-15T18:22:17.226Z,32.38
2018-02-15T18:24:45.526Z,38.90
2018-02-15T18:27:13.032Z,29.60
2018-02-15T18:29:40.555Z,38.10
2018-02-15T18:32:08.095Z,35.50
2018-02-15T18:34:36.459Z,40.10
2018-02-15T18:37:04.738Z,33.17
2018-02-15T18:39:33.030Z,30.75
2018-02-15T18:42:00.536Z,26.80
2018-02-15T18:44:28.032Z,35.15
2018-02-15T18:46:56.330Z,30.23
2018-02-15T18:49:23.855Z,35.65
2018-02-15T18:51:51.379Z,41.60
2018-02-15T18:54:18.914Z,35.03
2018-02-15T18:56:46.426Z,37.25
2018-02-15T18:59:13.930Z,35.70
2018-02-15T19:01:41.477Z,35.28
2018-02-15T19:04:09.217Z,34.80
2018-02-15T19:06:37.495Z,33.88
2018-02-15T19:09:05.784Z,33.05
2018-02-15T19:11:34.074Z,31.35
2018-02-15T19:14:02.359Z,32.30
2018-02-15T19:16:29.910Z,33.13
2018-02-15T19:18:57.422Z,29.77
2018-02-15T19:21:24.939Z,30.02
2018-02-15T19:23:52.474Z,23.48
2018-02-15T19:26:20.749Z,31.25
2018-02-15T19:28:49.017Z,30.10
2018-02-15T19:31:17.328Z,31.33
2018-02-15T19:33:44.843Z,25.90
2018-02-15T19:36:13.136Z,27.83
2018-02-15T19:38:41.446Z,22.23
2018-02-15T19:41:08.977Z,21.60
2018-02-15T19:43:36.490Z,26.80
2018-02-15T19:46:04.021Z,25.37
2018-02-15T19:48:31.540Z,28.70
2018-02-15T19:50:59.828Z,35.17
2018-02-15T19:53:28.127Z,30.88
2018-02-15T19:55:55.644Z,33.60
2018-02-15T19:58:23.917Z,33.70
2018-02-15T20:00:51.455Z,26.10
2018-02-15T20:03:18.965Z,26.95
2018-02-15T20:05:46.486Z,28.50
2018-02-15T20:08:14.008Z,31.27
2018-02-15T20:10:41.499Z,35.75
2018-02-15T20:13:08.992Z,30.42
2018-02-15T20:15:43.100Z,25.40
2018-02-15T20:18:11.368Z,30.75
2018-02-15T20:20:39.642Z,21.62
2018-02-15T20:23:07.954Z,24.42
2018-02-15T20:25:35.457Z,25.55
2018-02-15T20:28:09.189Z,22.55
2018-02-15T20:30:37.466Z,28.02
2018-02-15T20:33:05.753Z,26.37
2018-02-15T20:35:33.282Z,21.75
2018-02-15T20:38:06.427Z,25.60
2018-02-15T20:40:38.491Z,22.05
2018-02-15T20:43:06.002Z,22.23
2018-02-15T20:45:34.274Z,27.15
2018-02-15T20:48:01.834Z,24.37
2018-02-15T20:50:35.002Z,19.83
2018-02-15T20:53:08.290Z,26.48
2018-02-15T20:55:43.121Z,37.53
2018-02-15T20:58:10.637Z,31.90
2018-02-15T21:00:38.194Z,34.33
2018-02-15T21:03:06.455Z,23.17
2018-02-15T21:05:34.746Z,37.22
2018-02-15T21:08:02.634Z,24.92
2018-02-15T21:10:30.137Z,32.10
2018-02-15T21:12:57.674Z,25.65
2018-02-15T21:15:25.186Z,25.35
2018-02-15T21:17:52.698Z,20.80
2018-02-15T21:20:20.240Z,23.08
2018-02-15T21:22:47.750Z,16.80
2018-02-15T21:25:16.012Z,39.15
2018-02-15T21:27:43.537Z,26.27
2018-02-15T21:30:11.059Z,19.00
2018-02-15T21:32:38.588Z,17.50
2018-02-15T21:35:06.108Z,21.52
2018-02-15T21:37:33.619Z,24.65
2018-02-15T21:40:01.894Z,26.12
2018-02-15T21:42:30.199Z,18.98
2018-02-15T21:44:57.716Z,19.48
2018-02-15T21:47:25.239Z,20.33
2018-02-15T21:49:52.774Z,17.30
2018-02-15T21:52:20.287Z,20.25
2018-02-15T21:54:47.799Z,22.85
2018-02-15T21:57:15.321Z,19.12
2018-02-15T21:59:43.589Z,21.23
2018-02-15T22:02:11.866Z,13.95
2018-02-15T22:04:40.166Z,20.10
2018-02-15T22:07:07.683Z,18.58
2018-02-15T22:09:35.212Z,24.35
2018-02-15T22:12:02.746Z,21.17
2018-02-15T22:14:30.249Z,34.22
2018-02-15T22:16:57.755Z,25.70
2018-02-15T22:19:26.068Z,26.45
2018-02-15T22:21:53.589Z,26.40
2018-02-15T22:24:21.867Z,27.70
2018-02-15T22:26:49.412Z,22.35
2018-02-15T22:29:17.672Z,31.23
2018-02-15T22:31:45.185Z,36.38
2018-02-15T22:34:12.727Z,29.45
2018-02-15T22:36:40.241Z,27.60
2018-02-15T22:39:07.750Z,20.90
2018-02-15T22:41:35.278Z,23.98
2018-02-15T22:44:03.571Z,18.80
2018-02-15T22:46:31.842Z,23.85
2018-02-15T22:49:00.144Z,23.17
2018-02-15T22:51:27.648Z,19.25
2018-02-15T22:53:55.162Z,27.92
2018-02-15T22:56:22.694Z,20.45
2018-02-15T22:58:50.960Z,27.00
2018-02-15T23:01:19.230Z,32.00
2018-02-15T23:03:47.516Z,24.12
2018-02-15T23:06:15.794Z,24.30
2018-02-15T23:08:44.069Z,26.37
2018-02-15T23:11:12.370Z,21.90
2018-02-15T23:13:39.874Z,20.80
2018-02-15T23:16:07.392Z,23.33
2018-02-15T23:18:34.911Z,17.00
2018-02-15T23:21:02.416Z,23.92
2018-02-15T23:23:29.916Z,17.20
2018-02-15T23:25:57.445Z,18.80
2018-02-15T23:28:24.945Z,22.13
2018-02-15T23:30:53.219Z,23.38
2018-02-15T23:33:20.765Z,22.77
2018-02-15T23:35:48.291Z,18.02
2018-02-15T23:38:15.802Z,23.65
2018-02-15T23:40:44.084Z,21.35
2018-02-15T23:43:12.340Z,23.42
2018-02-15T23:45:39.851Z,21.20
2018-02-15T23:48:07.392Z,20.77
2018-02-15T23:50:34.885Z,33.25
2018-02-15T23:53:02.389Z,30.00
2018-02-15T23:55:30.686Z,20.42
2018-02-15T23:57:58.198Z,16.48
